Time;durP1;ratioP1;P1;durP2;ratioP2;P2;SDS_P1;SDS_P2;PMS_P1;PMS_P2;Temp;Humidity;BMP_temperature;BMP_pressure;BME280_temperature;BME280_humidity;BME280_pressure;Samples;Min_cycle;Max_cycle;Signal;HPM_P1;HPM_P2
2021/01/15 00:02:04;;;;;;;19.15;9.02;;;;;;;-1.03;92.79;102480.16;4933711;29;20023;-74
2021/01/15 00:04:31;;;;;;;14.13;8.45;;;;;;;-1.07;92.80;102473.38;4936269;29;20393;-75
2021/01/15 00:06:59;;;;;;;16.02;8.98;;;;;;;-0.94;92.46;102488.56;4961864;28;20055;-76
2021/01/15 00:09:24;;;;;;;16.10;8.82;;;;;;;-0.92;92.85;102486.81;4960444;28;20085;-76
2021/01/15 00:11:50;;;;;;;16.42;8.75;;;;;;;-0.90;92.35;102483.34;4930794;28;20103;-77
2021/01/15 00:14:16;;;;;;;14.20;8.23;;;;;;;-0.86;91.97;102484.97;4948680;29;20039;-76
2021/01/15 00:16:41;;;;;;;15.88;8.52;;;;;;;-1.04;92.88;102472.44;4956485;28;20023;-75
2021/01/15 00:19:07;;;;;;;15.07;8.07;;;;;;;-0.98;93.04;102492.94;4941403;29;20043;-75
2021/01/15 00:21:51;;;;;;;15.52;8.32;;;;;;;-0.91;91.98;102483.38;4959304;28;20098;-77
2021/01/15 00:24:18;;;;;;;14.95;8.05;;;;;;;-0.86;91.33;102492.72;4959635;28;20042;-76
2021/01/15 00:26:50;;;;;;;13.55;8.18;;;;;;;-0.92;91.32;102484.22;4975687;28;20039;-76
2021/01/15 00:29:16;;;;;;;14.35;7.88;;;;;;;-0.91;91.13;102480.78;4948207;28;20105;-76
2021/01/15 00:31:46;;;;;;;14.02;7.90;;;;;;;-0.74;89.07;102478.72;4957655;28;20481;-80
2021/01/15 00:34:14;;;;;;;13.13;7.10;;;;;;;-0.76;89.72;102477.06;4942735;29;20643;-75
2021/01/15 00:36:41;;;;;;;15.15;7.75;;;;;;;-0.81;90.68;102480.59;4957814;29;20684;-78
2021/01/15 00:39:09;;;;;;;13.93;7.78;;;;;;;-0.77;90.32;102480.50;4941416;29;20042;-76
2021/01/15 00:41:38;;;;;;;14.82;8.18;;;;;;;-0.82;90.51;102468.56;4957014;29;20142;-77
2021/01/15 00:44:06;;;;;;;17.50;7.88;;;;;;;-0.75;89.01;102477.03;4957387;29;20497;-77
2021/01/15 00:46:32;;;;;;;14.18;7.03;;;;;;;-0.77;89.36;102480.50;4941799;29;20047;-77
2021/01/15 00:49:05;;;;;;;11.48;7.07;;;;;;;-0.91;89.58;102461.03;4946029;28;20381;-77
2021/01/15 00:51:32;;;;;;;14.53;7.37;;;;;;;-0.88;90.28;102468.69;4947313;28;20038;-76
2021/01/15 00:53:58;;;;;;;12.57;6.72;;;;;;;-0.71;89.33;102472.69;4946046;29;20051;-76
2021/01/15 00:56:25;;;;;;;12.20;6.65;;;;;;;-0.83;89.20;102456.59;4927807;29;20039;-76
2021/01/15 00:58:51;;;;;;;12.15;6.85;;;;;;;-0.92;88.79;102453.31;4936483;28;20048;-76
2021/01/15 01:01:24;;;;;;;11.57;6.85;;;;;;;-0.92;88.35;102468.78;4932317;29;20078;-76
2021/01/15 01:03:53;;;;;;;12.85;7.30;;;;;;;-1.11;89.00;102466.59;4934480;28;20043;-77
2021/01/15 01:06:21;;;;;;;11.60;6.55;;;;;;;-1.21;89.89;102468.44;4947013;29;20043;-77
2021/01/15 01:08:48;;;;;;;14.93;7.03;;;;;;;-1.32;90.06;102474.69;4956916;29;20122;-76
2021/01/15 01:11:19;;;;;;;14.45;7.25;;;;;;;-1.44;91.18;102473.19;4950939;28;20038;-76
2021/01/15 01:13:46;;;;;;;12.35;7.18;;;;;;;-1.44;90.57;102475.75;4956936;28;20032;-75
2021/01/15 01:16:14;;;;;;;10.73;6.72;;;;;;;-1.44;90.52;102488.63;4945415;29;20051;-77
2021/01/15 01:18:40;;;;;;;11.98;7.53;;;;;;;-1.41;90.31;102492.00;4922013;29;20058;-76
2021/01/15 01:21:06;;;;;;;8.40;5.88;;;;;;;-1.50;90.32;102475.88;4936473;28;20047;-76
2021/01/15 01:23:32;;;;;;;12.85;6.72;;;;;;;-1.48;90.97;102476.69;4946954;29;20110;-76
2021/01/15 01:25:58;;;;;;;13.57;6.70;;;;;;;-1.42;90.79;102492.88;4955977;29;20560;-76
2021/01/15 01:28:24;;;;;;;9.73;6.03;;;;;;;-1.49;90.71;102477.56;4940681;29;20037;-76
2021/01/15 01:30:50;;;;;;;18.15;9.35;;;;;;;-1.45;91.00;102492.06;4950552;29;20039;-76
2021/01/15 01:33:16;;;;;;;14.05;7.53;;;;;;;-1.44;91.71;102492.03;4935727;29;20493;-75
2021/01/15 01:35:42;;;;;;;13.57;7.80;;;;;;;-1.31;90.43;102489.28;4946342;28;20036;-76
2021/01/15 01:38:08;;;;;;;14.13;6.78;;;;;;;-1.32;91.13;102496.13;4938319;29;20091;-76
2021/01/15 01:40:33;;;;;;;14.00;7.97;;;;;;;-1.28;91.16;102494.34;4940493;29;20040;-75
2021/01/15 01:42:59;;;;;;;12.18;7.47;;;;;;;-1.33;91.00;102489.28;4947955;29;20031;-76
2021/01/15 01:45:25;;;;;;;12.27;7.68;;;;;;;-1.21;91.05;102499.34;4958824;28;20133;-78
2021/01/15 01:47:52;;;;;;;11.95;6.88;;;;;;;-1.23;91.27;102503.69;4958528;28;20046;-76
2021/01/15 01:50:18;;;;;;;14.80;8.30;;;;;;;-1.33;92.11;102491.88;4959718;28;20035;-78
2021/01/15 01:52:44;;;;;;;12.88;7.85;;;;;;;-1.24;91.39;102506.31;4963921;28;20438;-77
2021/01/15 01:55:12;;;;;;;13.70;7.97;;;;;;;-1.27;90.84;102494.31;4934728;29;20040;-75
2021/01/15 01:57:38;;;;;;;15.15;7.88;;;;;;;-1.08;90.94;102519.75;4943262;29;20050;-75
2021/01/15 02:00:05;;;;;;;17.33;8.73;;;;;;;-1.04;90.95;102514.50;4957391;28;20036;-75
2021/01/15 02:02:39;;;;;;;16.08;8.60;;;;;;;-1.13;91.46;102501.81;4946027;28;20031;-75
2021/01/15 02:05:06;;;;;;;18.45;9.38;;;;;;;-1.02;90.75;102512.78;4955298;28;20035;-76
2021/01/15 02:07:32;;;;;;;14.90;8.70;;;;;;;-0.97;91.36;102525.56;4940368;29;20421;-77
2021/01/15 02:10:31;;;;;;;15.00;9.30;;;;;;;-0.97;92.18;102520.41;4954708;28;20051;-76
2021/01/15 02:12:56;;;;;;;19.58;10.20;;;;;;;-0.95;92.56;102525.53;4932202;28;20047;-75
2021/01/15 02:15:29;;;;;;;17.92;9.80;;;;;;;-0.94;91.99;102514.34;4952784;28;20122;-76
2021/01/15 02:17:59;;;;;;;20.90;10.80;;;;;;;-0.96;92.40;102500.63;4937459;29;20036;-77
2021/01/15 02:20:30;;;;;;;15.45;8.73;;;;;;;-0.89;93.04;102525.41;4937972;29;20115;-75
2021/01/15 02:23:13;;;;;;;17.17;10.13;;;;;;;-1.07;93.27;102504.28;4922441;29;20059;-75
2021/01/15 02:26:16;;;;;;;17.10;9.77;;;;;;;-0.80;92.85;102522.66;4905762;29;20081;-77
2021/01/15 02:29:10;;;;;;;18.42;11.15;;;;;;;-0.78;92.22;102528.63;4924361;29;20069;-76
2021/01/15 02:31:45;;;;;;;23.20;11.63;;;;;;;-0.80;92.84;102523.50;4939863;29;20736;-76
2021/01/15 02:34:34;;;;;;;19.95;10.23;;;;;;;-0.75;92.74;102523.44;4923934;29;20039;-78
2021/01/15 02:37:07;;;;;;;18.60;10.52;;;;;;;-0.77;92.64;102529.47;4956228;28;20485;-77
2021/01/15 02:40:03;;;;;;;22.67;11.70;;;;;;;-0.82;93.63;102521.84;4975165;28;20050;-76
2021/01/15 02:42:37;;;;;;;21.85;11.45;;;;;;;-0.88;94.17;102521.97;4975325;28;20489;-77
2021/01/15 02:45:07;;;;;;;20.15;11.95;;;;;;;-0.88;93.69;102524.53;4951940;28;20059;-77
2021/01/15 02:47:52;;;;;;;20.83;12.07;;;;;;;-0.89;94.19;102531.41;4973353;28;20173;-76
2021/01/15 02:50:23;;;;;;;19.58;11.30;;;;;;;-0.85;94.25;102532.19;4953522;29;20042;-76
2021/01/15 02:52:49;;;;;;;18.65;11.30;;;;;;;-0.84;93.92;102536.47;4954501;29;20062;-77
2021/01/15 02:55:15;;;;;;;18.38;10.45;;;;;;;-0.86;94.27;102541.66;4933339;28;20043;-75
2021/01/15 02:57:41;;;;;;;21.13;12.10;;;;;;;-0.88;94.49;102535.69;4972422;28;20047;-77
2021/01/15 03:00:12;;;;;;;21.90;11.18;;;;;;;-0.88;94.15;102534.84;4938866;28;20521;-76
2021/01/15 03:02:47;;;;;;;24.08;11.07;;;;;;;-0.91;94.50;102537.47;4952299;28;20057;-76
2021/01/15 03:05:20;;;;;;;20.88;11.07;;;;;;;-0.82;94.37;102550.19;4956600;28;20031;-77
2021/01/15 03:07:47;;;;;;;16.75;10.23;;;;;;;-0.84;94.08;102545.06;4943184;28;20047;-76
2021/01/15 03:10:13;;;;;;;24.58;11.88;;;;;;;-0.85;94.08;102545.06;4953462;29;20037;-77
2021/01/15 03:12:43;;;;;;;21.70;10.88;;;;;;;-0.86;94.83;102559.69;4952971;28;20043;-77
2021/01/15 03:15:10;;;;;;;20.50;11.70;;;;;;;-0.88;94.51;102558.88;4952804;28;20382;-75
2021/01/15 03:17:41;;;;;;;23.05;13.38;;;;;;;-0.81;94.59;102554.44;4938289;29;20094;-75
2021/01/15 03:20:09;;;;;;;23.50;13.50;;;;;;;-0.81;94.16;102559.59;4954187;29;20040;-78
2021/01/15 03:22:37;;;;;;;21.38;12.23;;;;;;;-0.75;94.42;102561.22;4924236;29;20523;-78
2021/01/15 03:25:04;;;;;;;24.25;12.95;;;;;;;-0.77;94.16;102561.25;4942430;29;20408;-76
2021/01/15 03:27:52;;;;;;;20.23;13.00;;;;;;;-0.82;94.21;102557.91;4942347;29;20058;-77
2021/01/15 03:30:19;;;;;;;21.90;12.23;;;;;;;-0.82;93.63;102563.06;4937803;28;20042;-76
2021/01/15 03:32:46;;;;;;;20.13;11.63;;;;;;;-0.85;93.90;102569.13;4977344;28;20043;-77
2021/01/15 03:35:22;;;;;;;19.73;11.10;;;;;;;-0.81;94.28;102569.91;4945309;28;20070;-78
2021/01/15 03:38:05;;;;;;;19.23;11.38;;;;;;;-0.82;93.81;102573.38;4977454;28;20073;-76
2021/01/15 03:40:31;;;;;;;;;;;;;;;-0.81;93.75;102573.34;4974460;28;20031;-77
2021/01/15 03:42:57;;;;;;;22.27;11.48;;;;;;;-0.85;93.49;102566.56;4955099;29;19926;-77
2021/01/15 03:45:23;;;;;;;18.52;10.10;;;;;;;-0.76;92.86;102572.41;4957969;29;20050;-76
2021/01/15 03:47:48;;;;;;;19.88;10.93;;;;;;;-0.76;92.83;102573.25;4926467;29;20031;-77
2021/01/15 03:50:14;;;;;;;20.10;10.57;;;;;;;-0.72;91.04;102571.47;4925976;29;20053;-76
2021/01/15 03:52:40;;;;;;;17.45;9.98;;;;;;;-0.79;92.01;102571.59;4941596;29;20043;-78
2021/01/15 03:55:06;;;;;;;20.35;10.70;;;;;;;-0.86;91.59;102567.44;4958261;29;20402;-77
2021/01/15 03:57:32;;;;;;;18.33;9.68;;;;;;;-0.81;91.53;102564.75;4957586;29;20039;-77
2021/01/15 03:59:58;;;;;;;16.02;9.15;;;;;;;-0.92;91.57;102541.78;4957514;28;20035;-78
2021/01/15 04:02:24;;;;;;;19.27;10.45;;;;;;;-0.93;91.50;102546.97;4972060;28;20027;-78
2021/01/15 04:04:49;;;;;;;16.45;9.63;;;;;;;-1.02;92.23;102545.38;4939135;28;20030;-77
2021/01/15 04:07:16;;;;;;;20.77;9.55;;;;;;;-0.91;91.02;102558.91;4976540;28;20105;-76
2021/01/15 04:09:42;;;;;;;21.05;10.80;;;;;;;-0.93;91.65;102560.69;4976707;28;20516;-77
2021/01/15 04:12:12;;;;;;;17.35;8.95;;;;;;;-0.94;91.30;102543.53;4944478;29;20061;-76
2021/01/15 04:14:39;;;;;;;16.17;9.38;;;;;;;-0.83;90.90;102551.91;4956921;28;20035;-77
2021/01/15 04:17:04;;;;;;;14.82;9.52;;;;;;;-0.84;91.30;102563.09;4938623;29;20054;-76
2021/01/15 04:19:30;;;;;;;15.05;9.18;;;;;;;-0.88;91.09;102555.47;4980994;28;20035;-76
2021/01/15 04:21:56;;;;;;;18.13;9.52;;;;;;;-0.97;91.88;102561.63;4960700;28;20035;-75
2021/01/15 04:24:22;;;;;;;18.23;10.02;;;;;;;-1.04;92.23;102553.13;4944929;28;20373;-76
2021/01/15 04:26:52;;;;;;;19.10;9.27;;;;;;;-0.96;92.17;102560.75;4957032;29;20034;-78
2021/01/15 04:29:18;;;;;;;17.63;8.65;;;;;;;-0.91;92.39;102553.78;4959112;28;20392;-77
2021/01/15 04:31:44;;;;;;;15.30;8.80;;;;;;;-0.93;92.10;102565.84;4957309;29;20031;-76
2021/01/15 04:34:09;;;;;;;15.93;9.43;;;;;;;-0.99;91.69;102563.38;4955901;28;20373;-77
2021/01/15 04:36:35;;;;;;;15.27;10.02;;;;;;;-1.01;91.40;102541.94;4947693;28;20039;-78
2021/01/15 04:39:01;;;;;;;17.80;8.85;;;;;;;-0.95;91.57;102554.72;4976726;28;20113;-77
2021/01/15 04:41:30;;;;;;;17.58;9.30;;;;;;;-1.02;91.76;102546.25;4964279;28;20090;-78
2021/01/15 04:43:55;;;;;;;15.88;8.93;;;;;;;-1.05;91.62;102556.59;4906658;29;20035;-76
2021/01/15 04:46:22;;;;;;;15.45;8.30;;;;;;;-1.08;91.86;102550.66;4930432;28;20489;-77
2021/01/15 04:48:52;;;;;;;14.25;7.97;;;;;;;-0.94;91.00;102564.16;4989748;28;20081;-76
2021/01/15 04:51:23;;;;;;;15.40;8.65;;;;;;;-0.91;91.19;102566.66;4928923;28;20069;-76
2021/01/15 04:53:55;;;;;;;14.23;8.50;;;;;;;-0.94;90.19;102556.41;4947628;29;20062;-76
2021/01/15 04:56:33;;;;;;;16.75;8.93;;;;;;;-1.01;90.77;102552.25;4922320;29;20039;-77
2021/01/15 04:59:02;;;;;;;16.88;8.90;;;;;;;-1.05;91.73;102566.06;4957447;28;20041;-76
2021/01/15 05:01:40;;;;;;;14.23;8.32;;;;;;;-0.97;90.72;102564.19;4956950;29;20421;-77
2021/01/15 05:04:14;;;;;;;14.23;8.02;;;;;;;-1.01;90.50;102568.53;4945359;29;20158;-78
2021/01/15 05:06:52;;;;;;;16.05;8.65;;;;;;;-1.04;91.70;102568.59;4960478;28;20050;-77
2021/01/15 05:09:25;;;;;;;16.35;7.93;;;;;;;-1.10;91.47;102567.88;4937699;29;20035;-78
2021/01/15 05:11:52;;;;;;;17.17;7.70;;;;;;;-0.98;90.59;102567.63;4943526;28;20036;-76
2021/01/15 05:14:21;;;;;;;15.75;7.25;;;;;;;-1.00;91.32;102583.13;4940439;29;20492;-77
2021/01/15 05:16:49;;;;;;;19.50;8.15;;;;;;;-1.14;90.90;102568.78;4924143;29;20050;-75
2021/01/15 05:19:16;;;;;;;15.43;7.65;;;;;;;-0.99;89.89;102576.25;4956131;29;20042;-79
2021/01/15 05:21:42;;;;;;;14.15;8.25;;;;;;;-1.11;89.77;102566.16;4956331;29;20028;-78
2021/01/15 05:24:10;;;;;;;13.40;8.60;;;;;;;-1.06;90.91;102577.22;4940277;29;20069;-76
2021/01/15 05:26:39;;;;;;;15.63;7.97;;;;;;;-0.96;89.69;102586.50;4946423;29;20036;-76
2021/01/15 05:29:06;;;;;;;15.30;8.43;;;;;;;-0.96;90.29;102594.25;4937021;29;20036;-76
2021/01/15 05:31:56;;;;;;;15.45;8.10;;;;;;;-0.99;90.02;102583.97;4936665;29;20035;-78
2021/01/15 05:34:27;;;;;;;16.83;9.15;;;;;;;-0.96;91.39;102586.50;4912079;29;20051;-77
2021/01/15 05:36:53;;;;;;;17.85;7.93;;;;;;;-1.04;90.82;102589.19;4955043;28;20038;-76
2021/01/15 05:39:22;;;;;;;15.43;8.48;;;;;;;-1.03;91.20;102587.50;4975229;28;20042;-77
2021/01/15 05:41:50;;;;;;;14.15;8.20;;;;;;;-0.96;91.67;102601.09;4961357;28;20050;-78
2021/01/15 05:44:27;;;;;;;15.70;8.57;;;;;;;-1.06;91.07;102606.41;4955880;28;20086;-77
2021/01/15 05:46:52;;;;;;;15.10;8.57;;;;;;;-1.10;91.14;102603.91;4955714;29;20453;-77
2021/01/15 05:49:18;;;;;;;15.82;8.32;;;;;;;-1.03;91.00;102595.22;4940053;29;20094;-77
2021/01/15 05:51:44;;;;;;;14.07;8.38;;;;;;;-1.05;90.40;102604.69;4964502;28;20483;-76
2021/01/15 05:54:11;;;;;;;15.50;8.55;;;;;;;-1.12;90.84;102610.81;4959419;28;20058;-82
2021/01/15 05:56:44;;;;;;;15.07;8.15;;;;;;;-1.00;90.31;102620.91;4947970;28;20043;-76
2021/01/15 05:59:14;;;;;;;14.15;8.75;;;;;;;-0.92;90.74;102607.91;4929706;28;20042;-80
2021/01/15 06:01:56;;;;;;;21.52;9.43;;;;;;;-0.98;90.80;102632.91;4961477;28;20042;-78
2021/01/15 06:04:24;;;;;;;18.33;9.10;;;;;;;-1.01;90.63;102632.09;4978158;28;20050;-79
2021/01/15 06:06:50;;;;;;;14.32;8.20;;;;;;;-1.05;89.98;102621.00;4958315;28;20111;-76
2021/01/15 06:09:21;;;;;;;18.42;8.70;;;;;;;-1.10;89.17;102621.94;4957452;29;20074;-77
2021/01/15 06:11:48;;;;;;;16.48;8.98;;;;;;;-1.15;89.84;102623.75;4954361;28;20062;-77
2021/01/15 06:14:22;;;;;;;15.70;9.07;;;;;;;-1.07;90.34;102633.06;4949590;28;20070;-76
2021/01/15 06:16:48;;;;;;;14.82;8.07;;;;;;;-1.14;90.09;102613.41;4947744;29;20117;-77
2021/01/15 06:19:14;;;;;;;15.43;9.20;;;;;;;-1.14;89.88;102628.03;4939216;29;20113;-77
2021/01/15 06:21:51;;;;;;;15.05;9.20;;;;;;;-1.15;87.96;102624.59;4955088;29;20035;-77
2021/01/15 06:24:21;;;;;;;15.52;9.07;;;;;;;-1.08;88.24;102635.66;4923294;29;20477;-76
2021/01/15 06:27:05;;;;;;;16.08;9.27;;;;;;;-1.10;87.37;102633.09;4955160;28;20038;-76
2021/01/15 06:29:43;;;;;;;16.13;9.32;;;;;;;-1.13;87.21;102646.03;4938911;29;20043;-75
2021/01/15 06:32:10;;;;;;;17.95;8.77;;;;;;;-1.23;88.51;102632.44;4970354;28;20082;-77
2021/01/15 06:34:46;;;;;;;13.55;9.32;;;;;;;-1.04;85.36;102639.88;4922881;29;20121;-76
2021/01/15 06:37:18;;;;;;;16.95;10.02;;;;;;;-1.13;87.92;102645.16;4973994;28;20042;-77
2021/01/15 06:40:00;;;;;;;20.00;10.23;;;;;;;-1.22;88.15;102644.44;4952056;28;20027;-77
2021/01/15 06:42:29;;;;;;;15.82;8.73;;;;;;;-1.26;87.87;102629.94;4939068;29;20119;-76
2021/01/15 06:44:54;;;;;;;19.42;10.07;;;;;;;-1.22;87.00;102634.16;4935981;29;20071;-77
2021/01/15 06:47:24;;;;;;;17.02;9.48;;;;;;;-1.21;88.53;102638.41;4920337;29;20068;-76
2021/01/15 06:49:55;;;;;;;18.73;9.80;;;;;;;-1.32;88.52;102635.16;4920267;29;20052;-77
2021/01/15 06:52:26;;;;;;;17.52;10.35;;;;;;;-1.27;88.07;102648.81;4966789;28;20089;-77
2021/01/15 06:54:54;;;;;;;16.10;9.55;;;;;;;-1.25;88.68;102651.38;4989706;28;20105;-76
2021/01/15 06:57:27;;;;;;;19.63;10.55;;;;;;;-1.23;89.20;102649.63;4957129;28;20085;-76
2021/01/15 06:59:57;;;;;;;18.10;10.80;;;;;;;-1.23;88.29;102660.75;4957737;28;20035;-78
2021/01/15 07:02:48;;;;;;;17.30;10.70;;;;;;;-1.18;88.17;102653.81;4924322;29;20416;-77
2021/01/15 07:05:16;;;;;;;16.08;9.98;;;;;;;-1.27;88.65;102653.97;4950821;29;20040;-77
2021/01/15 07:07:43;;;;;;;21.27;10.25;;;;;;;-1.28;88.89;102654.84;4941559;29;20039;-76
2021/01/15 07:10:09;;;;;;;21.30;10.55;;;;;;;-1.32;88.55;102657.47;4967474;28;20050;-76
2021/01/15 07:12:42;;;;;;;20.42;10.00;;;;;;;-1.32;88.25;102668.63;4960071;28;20117;-77
2021/01/15 07:15:11;;;;;;;;;;;;;;;-1.19;88.52;102677.00;4955655;28;20425;-76
2021/01/15 07:17:43;;;;;;;18.58;10.02;;;;;;;-1.26;89.24;102672.81;4938350;29;19918;-76
2021/01/15 07:20:13;;;;;;;16.77;9.98;;;;;;;-1.23;88.58;102681.34;4922573;29;20039;-77
2021/01/15 07:22:47;;;;;;;20.33;10.73;;;;;;;-1.40;89.07;102663.59;4954424;29;20039;-77
2021/01/15 07:25:13;;;;;;;17.25;9.85;;;;;;;-1.34;90.17;102661.81;4944493;29;20046;-77
2021/01/15 07:27:40;;;;;;;16.00;9.85;;;;;;;-1.34;88.64;102667.78;4968912;28;20432;-76
2021/01/15 07:30:24;;;;;;;19.05;9.77;;;;;;;-1.15;87.34;102682.97;4989272;28;20089;-76
2021/01/15 07:32:52;;;;;;;20.65;10.18;;;;;;;-1.14;88.98;102682.97;4974031;28;20097;-78
2021/01/15 07:35:19;;;;;;;17.75;9.95;;;;;;;-1.21;86.44;102689.91;4973591;28;20044;-77
2021/01/15 07:37:45;;;;;;;17.98;10.23;;;;;;;-1.22;86.14;102683.06;4973642;28;20366;-77
2021/01/15 07:40:16;;;;;;;17.05;10.05;;;;;;;-1.16;85.30;102691.59;4942894;28;20035;-76
2021/01/15 07:42:56;;;;;;;16.15;9.93;;;;;;;-1.08;83.71;102700.88;4975269;28;20038;-78
2021/01/15 07:45:25;;;;;;;16.38;9.77;;;;;;;-1.10;85.00;102705.22;4914423;28;20034;-79
2021/01/15 07:48:04;;;;;;;15.20;9.38;;;;;;;-1.18;84.44;102702.75;4941419;28;20408;-79
2021/01/15 07:50:39;;;;;;;18.88;9.85;;;;;;;-1.13;83.56;102712.13;4927727;29;20047;-79
2021/01/15 07:53:14;;;;;;;18.45;10.38;;;;;;;-1.23;85.61;102709.69;4956564;28;20045;-78
2021/01/15 07:55:46;;;;;;;20.77;9.45;;;;;;;-1.26;84.02;102706.31;4944093;29;20093;-79
2021/01/15 07:58:13;;;;;;;18.33;10.35;;;;;;;-1.28;84.61;102702.91;4953935;29;20039;-77
2021/01/15 08:00:39;;;;;;;20.60;11.15;;;;;;;-1.31;85.86;102713.25;4950420;28;20043;-78
2021/01/15 08:03:05;;;;;;;18.75;10.15;;;;;;;-1.31;86.28;102708.13;4923174;29;20122;-77
2021/01/15 08:05:32;;;;;;;18.15;10.05;;;;;;;-1.30;83.92;102712.38;4938891;29;20122;-77
2021/01/15 08:08:08;;;;;;;22.70;11.38;;;;;;;-1.38;83.64;102703.03;4939185;29;20385;-77
2021/01/15 08:10:48;;;;;;;17.63;10.05;;;;;;;-1.25;83.63;102723.47;4926346;29;20063;-77
2021/01/15 08:13:17;;;;;;;19.45;10.48;;;;;;;-1.17;83.27;102729.34;4963514;28;20032;-81
2021/01/15 08:15:43;;;;;;;17.50;10.32;;;;;;;-1.32;83.88;102719.28;4945935;29;20073;-78
2021/01/15 08:18:09;;;;;;;16.33;10.13;;;;;;;-1.35;83.99;102720.19;4926482;29;20059;-78
2021/01/15 08:20:35;;;;;;;17.80;10.93;;;;;;;-1.33;83.97;102715.00;4927049;29;20047;-76
2021/01/15 08:23:01;;;;;;;18.67;11.20;;;;;;;-1.35;84.84;102720.19;4952769;28;20394;-78
2021/01/15 08:25:28;;;;;;;23.38;11.10;;;;;;;-1.37;84.01;102720.19;4959743;28;20042;-77
2021/01/15 08:27:55;;;;;;;16.48;10.73;;;;;;;-1.37;84.42;102724.50;4958786;28;20045;-78
2021/01/15 08:30:21;;;;;;;20.73;11.73;;;;;;;-1.40;85.46;102714.22;4944264;28;20042;-76
2021/01/15 08:32:48;;;;;;;22.67;12.32;;;;;;;-1.45;87.09;102721.16;4944514;28;20118;-77
2021/01/15 08:35:25;;;;;;;19.77;11.85;;;;;;;-1.53;86.48;102712.69;4960124;28;20170;-79
2021/01/15 08:37:58;;;;;;;24.40;12.48;;;;;;;-1.40;87.00;102722.78;4922723;29;20482;-77
2021/01/15 08:40:38;;;;;;;24.45;13.60;;;;;;;-1.41;88.13;102715.13;4922435;29;20047;-78
2021/01/15 08:43:05;;;;;;;24.50;12.73;;;;;;;-1.49;88.21;102710.03;4945108;29;20036;-77
2021/01/15 08:45:31;;;;;;;22.70;12.57;;;;;;;-1.49;86.73;102707.47;4925471;29;20043;-78
2021/01/15 08:47:57;;;;;;;27.90;12.07;;;;;;;-1.50;86.54;102716.06;4940961;29;20074;-78
2021/01/15 08:50:24;;;;;;;22.05;12.23;;;;;;;-1.48;86.75;102724.63;4924430;29;20062;-78
2021/01/15 08:52:51;;;;;;;22.90;13.57;;;;;;;-1.48;87.79;102723.78;4940343;29;20031;-78
2021/01/15 08:55:19;;;;;;;22.48;13.13;;;;;;;-1.44;87.51;102728.00;4941162;29;20114;-77
2021/01/15 08:57:47;;;;;;;24.80;13.85;;;;;;;-1.50;87.61;102726.38;4924851;29;20046;-78
2021/01/15 09:00:14;;;;;;;22.38;12.73;;;;;;;-1.50;87.55;102738.41;4944060;28;20085;-78
2021/01/15 09:02:42;;;;;;;21.40;13.15;;;;;;;-1.52;88.43;102735.00;4926108;28;20039;-79
2021/01/15 09:05:11;;;;;;;23.38;13.65;;;;;;;-1.44;87.18;102756.34;4970348;28;20038;-78
2021/01/15 09:07:47;;;;;;;23.63;13.02;;;;;;;-1.45;86.93;102749.47;4970729;28;20037;-78
2021/01/15 09:10:16;;;;;;;25.92;12.95;;;;;;;-1.51;87.63;102741.84;4949897;29;20147;-78
2021/01/15 09:12:43;;;;;;;23.05;13.48;;;;;;;-1.41;89.40;102754.56;4941010;29;20056;-78
2021/01/15 09:15:29;;;;;;;22.23;12.93;;;;;;;-1.44;86.20;102753.75;4921166;29;20094;-77
2021/01/15 09:17:56;;;;;;;23.75;13.02;;;;;;;-1.47;86.72;102754.66;4921738;29;20140;-78
2021/01/15 09:20:23;;;;;;;23.98;12.82;;;;;;;-1.53;87.50;102751.31;4936438;29;20098;-78
2021/01/15 09:22:49;;;;;;;24.92;13.60;;;;;;;-1.52;86.78;102758.16;4921467;29;20079;-78
2021/01/15 09:25:16;;;;;;;24.10;13.73;;;;;;;-1.60;88.29;102748.81;4953094;29;20040;-78
2021/01/15 09:27:43;;;;;;;23.17;13.05;;;;;;;-1.50;87.32;102759.00;4938452;29;20043;-78
2021/01/15 09:30:11;;;;;;;24.05;12.95;;;;;;;-1.59;86.77;102762.53;4921390;29;20040;-79
2021/01/15 09:32:44;;;;;;;23.58;13.13;;;;;;;-1.51;86.95;102768.41;4948506;29;20040;-77
2021/01/15 09:35:12;;;;;;;24.60;12.63;;;;;;;-1.58;86.93;102764.25;4921462;29;20054;-78
2021/01/15 09:37:40;;;;;;;23.45;13.02;;;;;;;-1.51;86.17;102775.28;4953244;29;20039;-77
2021/01/15 09:40:09;;;;;;;23.02;12.48;;;;;;;-1.51;88.39;102778.72;4955148;28;20094;-78
2021/01/15 09:42:35;;;;;;;22.50;12.00;;;;;;;-1.42;86.50;102788.06;4940060;29;20031;-79
2021/01/15 09:45:02;;;;;;;27.27;13.43;;;;;;;-1.57;87.07;102782.22;4955720;29;20523;-78
2021/01/15 09:47:30;;;;;;;25.33;12.75;;;;;;;-1.54;86.33;102783.91;4953420;28;20035;-78
2021/01/15 09:50:00;;;;;;;23.77;12.60;;;;;;;-1.61;86.80;102788.28;4959373;28;20057;-78
2021/01/15 09:52:26;;;;;;;24.98;12.68;;;;;;;-1.52;86.66;102791.63;4959616;28;20047;-78
2021/01/15 09:54:53;;;;;;;22.83;12.40;;;;;;;-1.62;85.89;102784.00;4925552;29;20556;-78
2021/01/15 09:57:21;;;;;;;23.10;12.18;;;;;;;-1.61;87.07;102785.69;4937031;29;20683;-78
2021/01/15 09:59:48;;;;;;;20.27;11.50;;;;;;;-1.48;85.51;102795.88;4936405;29;20143;-78
2021/01/15 10:02:14;;;;;;;21.27;12.02;;;;;;;-1.61;85.57;102795.16;4905550;29;20039;-77
2021/01/15 10:04:41;;;;;;;19.02;11.35;;;;;;;-1.51;85.96;102813.91;4905392;29;20078;-78
2021/01/15 10:07:11;;;;;;;24.38;13.25;;;;;;;-1.59;87.05;102794.25;4945042;29;20035;-78
2021/01/15 10:09:37;;;;;;;22.05;12.27;;;;;;;-1.44;86.49;102811.22;4934958;29;20516;-78
2021/01/15 10:12:03;;;;;;;22.05;11.68;;;;;;;-1.56;85.38;102788.22;4922192;29;20103;-78
2021/01/15 10:14:29;;;;;;;18.90;11.05;;;;;;;-1.58;85.81;102798.53;4955497;29;20031;-79
2021/01/15 10:16:55;;;;;;;21.67;12.23;;;;;;;-1.50;86.38;102810.47;4936253;29;20040;-78
2021/01/15 10:19:21;;;;;;;20.92;11.93;;;;;;;-1.49;86.28;102802.72;4936262;29;20039;-78
2021/01/15 10:21:47;;;;;;;21.60;11.57;;;;;;;-1.52;85.05;102812.22;4925604;29;20035;-78
2021/01/15 10:24:14;;;;;;;19.48;11.00;;;;;;;-1.45;86.27;102808.69;4930279;28;20109;-78
2021/01/15 10:26:41;;;;;;;17.83;11.43;;;;;;;-1.42;87.09;102812.06;4974795;28;20408;-78
2021/01/15 10:29:08;;;;;;;24.02;11.77;;;;;;;-1.45;88.28;102806.97;4958615;28;20030;-80
2021/01/15 10:31:45;;;;;;;19.02;11.32;;;;;;;-1.35;86.66;102825.72;4942230;28;20489;-78
2021/01/15 10:34:11;;;;;;;23.75;10.65;;;;;;;-1.45;84.65;102806.97;4935984;28;20486;-78
2021/01/15 10:36:40;;;;;;;22.90;12.25;;;;;;;-1.51;85.18;102801.03;4935590;29;20039;-79
2021/01/15 10:39:05;;;;;;;18.10;11.18;;;;;;;-1.50;85.45;102803.59;4904665;29;20039;-77
2021/01/15 10:41:32;;;;;;;20.05;11.88;;;;;;;-1.27;85.47;102820.50;4914062;29;20460;-77
2021/01/15 10:44:02;;;;;;;17.42;10.68;;;;;;;-1.37;84.88;102819.75;4939346;29;20051;-78
2021/01/15 10:46:33;;;;;;;18.65;10.80;;;;;;;-1.42;85.69;102814.63;4920014;29;20142;-79
2021/01/15 10:49:04;;;;;;;19.20;11.50;;;;;;;-1.36;85.94;102821.44;4904033;29;20142;-77
2021/01/15 10:51:30;;;;;;;17.10;10.70;;;;;;;-1.35;84.58;102814.59;4935979;29;20042;-78
2021/01/15 10:53:56;;;;;;;20.05;11.18;;;;;;;-1.44;85.85;102800.94;4942231;29;20485;-78
2021/01/15 10:56:21;;;;;;;19.58;10.77;;;;;;;-1.46;85.76;102810.41;4951855;29;20043;-78
2021/01/15 10:58:47;;;;;;;17.25;10.27;;;;;;;-1.50;84.63;102805.31;4919614;29;20106;-78
2021/01/15 11:01:13;;;;;;;19.13;11.30;;;;;;;-1.50;86.36;102813.03;4919754;29;20043;-78
2021/01/15 11:03:41;;;;;;;19.42;10.48;;;;;;;-1.53;85.02;102795.91;4903939;29;20094;-78
2021/01/15 11:06:08;;;;;;;17.98;9.88;;;;;;;-1.48;83.72;102801.84;4930226;29;20031;-78
2021/01/15 11:08:34;;;;;;;16.95;10.18;;;;;;;-1.48;84.35;102808.72;4918356;29;20046;-77
2021/01/15 11:10:59;;;;;;;18.27;10.88;;;;;;;-1.39;85.67;102811.19;4953666;28;20043;-77
2021/01/15 11:13:25;;;;;;;17.13;10.85;;;;;;;-1.41;84.60;102812.94;4939575;29;20038;-79
2021/01/15 11:15:51;;;;;;;17.17;10.45;;;;;;;-1.58;84.94;102792.56;4954144;28;20035;-80
2021/01/15 11:18:16;;;;;;;17.75;10.25;;;;;;;-1.51;83.35;102801.03;4948266;28;20077;-79
2021/01/15 11:20:45;;;;;;;18.85;10.45;;;;;;;-1.65;85.04;102796.06;4963506;28;20117;-79
2021/01/15 11:23:14;;;;;;;17.90;10.80;;;;;;;-1.53;86.09;102810.50;4953155;29;20050;-79
2021/01/15 11:25:42;;;;;;;18.20;10.45;;;;;;;-1.52;84.95;102804.50;4975092;28;20483;-78